createdAt,value
2019-01-13T00:03:29.730Z,100408.03
2019-01-13T00:05:58.049Z,100418.08
2019-01-13T00:08:26.366Z,100414.80
2019-01-13T00:10:54.658Z,100417.19
2019-01-13T00:13:22.960Z,100421.13
2019-01-13T00:15:51.272Z,100420.48
2019-01-13T00:18:19.591Z,100427.25
2019-01-13T00:20:47.882Z,100431.55
2019-01-13T00:23:16.218Z,100430.02
2019-01-13T00:25:44.506Z,100421.61
2019-01-13T00:28:12.812Z,100428.49
2019-01-13T00:30:41.108Z,100429.05
2019-01-13T00:33:09.409Z,100427.67
2019-01-13T00:35:38.015Z,100431.87
2019-01-13T00:38:06.301Z,100427.34
2019-01-13T00:40:34.619Z,100431.27
2019-01-13T00:43:03.242Z,100434.89
2019-01-13T00:45:31.573Z,100429.60
2019-01-13T00:47:59.878Z,100427.20
2019-01-13T00:50:28.201Z,100432.28
2019-01-13T00:52:56.753Z,100424.91
2019-01-13T00:55:25.057Z,100426.64
2019-01-13T00:57:53.417Z,100414.59
2019-01-13T01:01:01.875Z,100400.03
2019-01-13T01:03:30.160Z,100402.16
2019-01-13T01:05:58.470Z,100405.27
2019-01-13T01:09:06.814Z,100403.35
2019-01-13T01:11:35.476Z,100394.52
2019-01-13T01:14:43.814Z,100384.53
2019-01-13T01:17:31.583Z,100387.48
2019-01-13T01:19:59.880Z,100383.28
2019-01-13T01:22:28.191Z,100391.84
2019-01-13T01:24:56.491Z,100381.91
2019-01-13T01:27:24.782Z,100392.72
2019-01-13T01:29:53.110Z,100388.80
2019-01-13T01:32:21.405Z,100381.09
2019-01-13T01:34:49.726Z,100383.34
2019-01-13T01:37:18.027Z,100375.84
2019-01-13T01:39:46.630Z,100363.20
2019-01-13T01:42:34.121Z,100373.29
2019-01-13T01:45:02.445Z,100364.88
2019-01-13T01:47:30.747Z,100355.22
2019-01-13T01:49:59.047Z,100352.39
2019-01-13T01:52:27.668Z,100363.36
2019-01-13T01:54:55.969Z,100360.52
2019-01-13T01:57:24.293Z,100357.45
2019-01-13T01:59:52.591Z,100359.91
2019-01-13T02:04:56.164Z,100362.26
2019-01-13T02:07:24.415Z,100344.53
2019-01-13T02:09:52.718Z,100332.19
2019-01-13T02:12:21.038Z,100329.84
2019-01-13T02:14:49.342Z,100329.84
2019-01-13T02:17:17.651Z,100328.14
2019-01-13T02:19:45.946Z,100318.20
2019-01-13T02:22:14.252Z,100312.81
2019-01-13T02:24:42.561Z,100312.81
2019-01-13T02:27:10.861Z,100318.05
2019-01-13T02:29:39.490Z,100314.27
2019-01-13T02:32:07.785Z,100299.66
2019-01-13T02:34:36.088Z,100299.50
2019-01-13T02:37:23.593Z,100294.91
2019-01-13T02:40:11.285Z,100302.00
2019-01-13T02:42:58.967Z,100304.46
2019-01-13T02:46:07.323Z,100314.95
2019-01-13T02:48:35.623Z,100313.02
2019-01-13T02:51:03.951Z,100307.08
2019-01-13T02:53:32.604Z,100290.96
2019-01-13T02:56:00.929Z,100291.78
2019-01-13T02:58:29.549Z,100310.12
2019-01-13T03:00:57.867Z,100320.94
2019-01-13T03:03:38.752Z,100314.45
2019-01-13T03:05:56.558Z,100325.15
2019-01-13T03:08:24.862Z,100324.38
2019-01-13T03:10:53.181Z,100322.41
2019-01-13T03:13:40.599Z,100314.87
2019-01-13T03:16:08.913Z,100318.27
2019-01-13T03:18:37.225Z,100317.63
2019-01-13T03:21:05.520Z,100310.40
2019-01-13T03:23:33.827Z,100305.01
2019-01-13T03:26:02.122Z,100295.34
2019-01-13T03:31:23.508Z,100293.09
2019-01-13T03:33:51.826Z,100293.30
2019-01-13T03:36:20.125Z,100287.47
2019-01-13T03:38:48.449Z,100282.10
2019-01-13T03:41:16.752Z,100269.48
2019-01-13T03:43:45.076Z,100270.16
2019-01-13T03:46:32.825Z,100256.84
2019-01-13T03:49:01.129Z,100255.20
2019-01-13T03:51:48.804Z,100253.51
2019-01-13T03:54:17.437Z,100245.28
2019-01-13T03:56:45.746Z,100241.02
2019-01-13T03:59:14.082Z,100236.59
2019-01-13T04:04:29.706Z,100223.91
2019-01-13T04:06:57.995Z,100228.33
2019-01-13T04:09:26.285Z,100212.40
2019-01-13T04:11:54.605Z,100211.62
2019-01-13T04:14:22.906Z,100207.20
2019-01-13T04:16:51.215Z,100189.15
2019-01-13T04:19:19.516Z,100197.83
2019-01-13T04:21:47.826Z,100210.80
2019-01-13T04:24:16.123Z,100206.05
2019-01-13T04:29:17.961Z,100203.12
2019-01-13T04:31:46.282Z,100184.48
2019-01-13T04:34:14.575Z,100168.72
2019-01-13T04:36:43.236Z,100164.99
2019-01-13T04:39:11.530Z,100156.51
2019-01-13T04:41:39.824Z,100148.45
2019-01-13T04:44:08.141Z,100139.61
2019-01-13T04:46:38.547Z,100131.66
2019-01-13T04:49:06.775Z,100137.23
2019-01-13T04:51:35.093Z,100128.25
2019-01-13T04:54:03.418Z,100121.83
2019-01-13T04:56:31.721Z,100118.26
2019-01-13T04:59:00.270Z,100105.97
2019-01-13T05:01:34.429Z,100103.35
2019-01-13T05:03:58.613Z,100097.62
2019-01-13T05:06:26.930Z,100090.58
2019-01-13T05:08:55.228Z,100098.44
2019-01-13T05:11:23.543Z,100093.36
2019-01-13T05:13:51.854Z,100097.81
2019-01-13T05:16:20.170Z,100088.97
2019-01-13T05:18:48.740Z,100096.55
2019-01-13T05:21:17.054Z,100091.80
2019-01-13T05:23:45.352Z,100090.97
2019-01-13T05:26:13.666Z,100076.84
2019-01-13T05:28:41.951Z,100060.14
2019-01-13T05:31:10.315Z,100059.65
2019-01-13T05:33:38.906Z,100052.80
2019-01-13T05:36:07.209Z,100054.60
2019-01-13T05:38:35.519Z,100049.06
2019-01-13T05:41:23.433Z,100053.48
2019-01-13T05:43:51.751Z,100053.81
2019-01-13T05:46:20.057Z,100047.06
2019-01-13T05:48:48.740Z,100044.45
2019-01-13T05:51:17.047Z,100047.23
2019-01-13T05:53:45.375Z,100042.48
2019-01-13T05:56:13.672Z,100039.23
2019-01-13T05:58:41.991Z,100038.15
2019-01-13T06:01:29.729Z,100040.48
2019-01-13T06:03:58.363Z,100041.49
2019-01-13T06:06:26.959Z,100040.05
2019-01-13T06:08:55.278Z,100037.86
2019-01-13T06:11:23.583Z,100039.46
2019-01-13T06:14:11.287Z,100029.83
2019-01-13T06:16:39.590Z,100023.59
2019-01-13T06:19:07.899Z,100026.87
2019-01-13T06:24:10.216Z,100018.16
2019-01-13T06:26:38.524Z,100012.92
2019-01-13T06:29:25.933Z,99997.05
2019-01-13T06:31:56.481Z,99995.38
2019-01-13T06:34:24.270Z,99992.27
2019-01-13T06:37:11.696Z,99987.38
2019-01-13T06:39:40.002Z,99985.72
2019-01-13T06:42:08.319Z,99973.09
2019-01-13T06:44:36.614Z,99978.02
2019-01-13T06:47:04.923Z,99968.52
2019-01-13T06:52:22.208Z,99969.66
2019-01-13T06:54:50.497Z,99959.98
2019-01-13T06:57:18.818Z,99959.50
2019-01-13T06:59:47.105Z,99950.48
2019-01-13T07:02:15.390Z,99946.06
2019-01-13T07:04:43.721Z,99951.17
2019-01-13T07:07:12.022Z,99945.24
2019-01-13T07:09:40.342Z,99942.92
2019-01-13T07:12:27.765Z,99939.97
2019-01-13T07:17:29.920Z,99929.81
2019-01-13T07:19:58.574Z,99917.72
2019-01-13T07:22:26.857Z,99911.00
2019-01-13T07:24:55.162Z,99904.93
2019-01-13T07:27:42.869Z,99911.48
2019-01-13T07:30:51.232Z,99911.48
2019-01-13T07:36:06.862Z,99895.62
2019-01-13T07:38:35.150Z,99898.89
2019-01-13T07:41:03.435Z,99891.22
2019-01-13T07:43:31.753Z,99898.45
2019-01-13T07:46:00.052Z,99885.97
2019-01-13T07:48:28.659Z,99890.91
2019-01-13T07:51:16.332Z,99887.48
2019-01-13T07:53:44.644Z,99875.99
2019-01-13T07:56:13.253Z,99871.75
2019-01-13T08:01:28.873Z,99878.00
2019-01-13T08:03:57.434Z,99865.71
2019-01-13T08:06:25.736Z,99868.20
2019-01-13T08:11:41.362Z,99853.92
2019-01-13T08:14:09.659Z,99854.91
2019-01-13T08:16:37.960Z,99846.41
2019-01-13T08:19:06.555Z,99840.67
2019-01-13T08:21:34.877Z,99848.86
2019-01-13T08:24:03.166Z,99849.69
2019-01-13T08:26:31.467Z,99843.14
2019-01-13T08:28:59.761Z,99844.45
2019-01-13T08:31:28.343Z,99840.37
2019-01-13T08:33:56.653Z,99839.39
2019-01-13T08:37:05.008Z,99831.38
2019-01-13T08:39:33.311Z,99826.97
2019-01-13T08:42:01.603Z,99824.52
2019-01-13T08:44:49.038Z,99826.97
2019-01-13T08:47:17.333Z,99830.90
2019-01-13T08:49:45.644Z,99827.78
2019-01-13T08:52:13.937Z,99809.74
2019-01-13T08:54:42.246Z,99807.30
2019-01-13T08:57:10.536Z,99806.34
2019-01-13T08:59:38.840Z,99802.91
2019-01-13T09:02:07.139Z,99809.51
2019-01-13T09:04:54.581Z,99808.52
2019-01-13T09:07:23.182Z,99803.09
2019-01-13T09:10:10.875Z,99798.70
2019-01-13T09:12:39.166Z,99784.09
2019-01-13T09:15:47.524Z,99788.03
2019-01-13T09:18:15.880Z,99788.07
2019-01-13T09:20:44.201Z,99763.28
2019-01-13T09:23:31.947Z,99791.02
2019-01-13T09:26:00.269Z,99793.83
2019-01-13T09:28:28.577Z,99777.41
2019-01-13T09:30:56.895Z,99766.59
2019-01-13T09:33:44.570Z,99774.81
2019-01-13T09:36:12.892Z,99780.87
2019-01-13T09:38:41.185Z,99774.49
2019-01-13T09:41:09.482Z,99767.44
2019-01-13T09:43:37.794Z,99754.48
2019-01-13T09:46:06.100Z,99747.10
2019-01-13T09:48:34.408Z,99738.09
2019-01-13T09:51:02.976Z,99753.16
2019-01-13T09:53:31.302Z,99746.78
2019-01-13T09:55:59.640Z,99740.71
2019-01-13T09:58:47.147Z,99734.79
2019-01-13T10:01:34.824Z,99734.79
2019-01-13T10:04:03.144Z,99730.84
2019-01-13T10:06:31.448Z,99739.22
2019-01-13T10:08:59.750Z,99737.09
2019-01-13T10:17:10.245Z,99732.50
2019-01-13T10:19:38.566Z,99730.87
2019-01-13T10:22:06.866Z,99729.20
2019-01-13T10:24:35.154Z,99724.30
2019-01-13T10:29:37.072Z,99716.59
2019-01-13T10:32:24.755Z,99711.34
2019-01-13T10:34:53.049Z,99711.48
2019-01-13T10:37:21.362Z,99702.80
2019-01-13T10:39:49.674Z,99702.47
2019-01-13T10:42:18.282Z,99696.55
2019-01-13T10:45:05.954Z,99694.59
2019-01-13T10:47:34.282Z,99690.33
2019-01-13T10:50:21.944Z,99686.22
2019-01-13T10:55:45.324Z,99667.48
2019-01-13T10:58:13.629Z,99667.17
2019-01-13T11:00:41.922Z,99670.47
2019-01-13T11:03:10.230Z,99660.59
2019-01-13T11:08:43.369Z,99646.98
2019-01-13T11:11:31.032Z,99634.83
2019-01-13T11:13:59.651Z,99632.36
2019-01-13T11:16:28.248Z,99630.39
2019-01-13T11:19:15.899Z,99628.25
2019-01-13T11:22:03.723Z,99619.87
2019-01-13T11:24:32.380Z,99623.16
2019-01-13T11:27:20.288Z,99622.52
2019-01-13T11:30:07.989Z,99615.95
2019-01-13T11:32:36.533Z,99617.74
2019-01-13T11:35:44.903Z,99609.55
2019-01-13T11:38:13.540Z,99615.13
2019-01-13T11:41:01.217Z,99604.63
2019-01-13T11:43:29.522Z,99590.48
2019-01-13T11:45:57.830Z,99589.02
2019-01-13T11:48:26.150Z,99582.10
2019-01-13T11:50:54.450Z,99574.72
2019-01-13T11:53:22.773Z,99572.77
2019-01-13T11:56:03.226Z,99566.69
2019-01-13T11:58:31.538Z,99549.61
2019-01-13T12:00:59.845Z,99542.41
2019-01-13T12:03:47.973Z,99539.09
2019-01-13T12:06:16.591Z,99540.23
2019-01-13T12:09:04.295Z,99529.89
2019-01-13T12:11:32.583Z,99538.45
2019-01-13T12:14:01.189Z,99530.73
2019-01-13T12:16:48.865Z,99531.70
2019-01-13T12:19:17.151Z,99538.42
2019-01-13T12:21:45.785Z,99533.33
2019-01-13T12:24:14.360Z,99523.64
2019-01-13T12:26:42.946Z,99528.10
2019-01-13T12:29:11.236Z,99517.91
2019-01-13T12:31:39.532Z,99522.84
2019-01-13T12:34:08.191Z,99515.47
2019-01-13T12:36:55.885Z,99506.61
2019-01-13T12:39:24.496Z,99503.80
2019-01-13T12:42:12.196Z,99507.09
2019-01-13T12:47:27.831Z,99511.55
2019-01-13T12:50:15.496Z,99508.27
2019-01-13T12:53:03.202Z,99513.83
2019-01-13T12:55:50.623Z,99482.50
2019-01-13T12:58:18.932Z,99477.06
2019-01-13T13:00:47.485Z,99481.52
2019-01-13T13:03:16.170Z,99469.02
2019-01-13T13:08:32.069Z,99448.48
2019-01-13T13:11:00.369Z,99441.77
2019-01-13T13:13:28.933Z,99432.41
2019-01-13T13:15:57.245Z,99440.61
2019-01-13T13:18:25.536Z,99431.63
2019-01-13T13:20:53.838Z,99433.56
2019-01-13T13:23:22.141Z,99429.97
2019-01-13T13:25:50.443Z,99433.91
2019-01-13T13:28:19.177Z,99421.94
2019-01-13T13:33:38.925Z,99415.18
2019-01-13T13:36:46.191Z,99418.97
2019-01-13T13:41:48.000Z,99379.88
2019-01-13T13:44:16.305Z,99370.38
2019-01-13T13:46:44.602Z,99369.37
2019-01-13T13:49:12.906Z,99391.67
2019-01-13T13:51:41.197Z,99376.09
2019-01-13T13:54:28.880Z,99367.63
2019-01-13T13:56:57.177Z,99374.19
2019-01-13T14:01:58.922Z,99360.59
2019-01-13T14:04:27.225Z,99359.06
2019-01-13T14:07:15.116Z,99361.88
2019-01-13T14:09:43.476Z,99367.78
2019-01-13T14:12:12.038Z,99366.34
2019-01-13T14:17:14.594Z,99359.25
2019-01-13T14:19:43.149Z,99350.25
2019-01-13T14:22:11.449Z,99346.13
2019-01-13T14:27:46.418Z,99342.99
2019-01-13T14:30:55.008Z,99353.34
2019-01-13T14:33:23.640Z,99350.06
2019-01-13T14:35:51.927Z,99354.00
2019-01-13T14:40:54.017Z,99348.09
2019-01-13T14:43:22.321Z,99350.06
2019-01-13T14:45:50.616Z,99349.75
2019-01-13T14:53:27.152Z,99346.16
2019-01-13T14:55:56.271Z,99344.02
2019-01-13T14:58:26.066Z,99341.05
2019-01-13T15:01:13.497Z,99344.65
2019-01-13T15:03:41.814Z,99338.42
2019-01-13T15:06:10.105Z,99339.24
2019-01-13T15:08:38.427Z,99341.02
2019-01-13T15:11:06.712Z,99333.80
2019-01-13T15:16:22.325Z,99335.64
2019-01-13T15:19:09.727Z,99346.16
2019-01-13T15:21:38.035Z,99349.91
2019-01-13T15:24:06.334Z,99351.91
2019-01-13T15:26:34.950Z,99347.50
2019-01-13T15:29:03.252Z,99359.31
2019-01-13T15:34:25.085Z,99353.06
2019-01-13T15:37:12.869Z,99347.81
2019-01-13T15:39:41.408Z,99347.13
2019-01-13T15:42:09.736Z,99348.78
2019-01-13T15:44:38.041Z,99342.88
2019-01-13T15:47:06.338Z,99326.30
2019-01-13T15:52:41.599Z,99321.20
2019-01-13T15:55:09.973Z,99327.92
2019-01-13T15:57:38.294Z,99330.20
2019-01-13T16:00:43.740Z,99329.08
2019-01-13T16:06:05.702Z,99328.73
2019-01-13T16:08:53.407Z,99318.73
2019-01-13T16:11:21.710Z,99320.17
2019-01-13T16:13:50.016Z,99317.89
2019-01-13T16:16:37.687Z,99320.86
2019-01-13T16:19:05.992Z,99311.83
2019-01-13T16:21:34.290Z,99313.80
2019-01-13T16:24:21.933Z,99306.58
2019-01-13T16:26:50.229Z,99298.20
2019-01-13T16:29:18.556Z,99291.94
2019-01-13T16:31:46.849Z,99293.44
2019-01-13T16:34:21.414Z,99292.13
2019-01-13T16:36:45.477Z,99296.53
2019-01-13T16:39:33.168Z,99293.09
2019-01-13T16:42:01.447Z,99298.19
2019-01-13T16:44:29.738Z,99291.44
2019-01-13T16:46:58.057Z,99283.37
2019-01-13T16:49:26.361Z,99290.77
2019-01-13T16:51:54.668Z,99292.40
2019-01-13T16:54:22.946Z,99290.78
2019-01-13T16:56:51.257Z,99285.06
2019-01-13T16:59:19.800Z,99280.12
2019-01-13T17:01:48.120Z,99269.77
2019-01-13T17:07:05.987Z,99254.87
2019-01-13T17:09:34.345Z,99252.39
2019-01-13T17:12:02.662Z,99251.23
2019-01-13T17:14:30.940Z,99248.64
2019-01-13T17:19:46.552Z,99253.75
2019-01-13T17:22:15.167Z,99237.34
2019-01-13T17:25:03.081Z,99253.91
2019-01-13T17:27:31.682Z,99263.09
2019-01-13T17:30:00.002Z,99262.27
2019-01-13T17:32:47.658Z,99263.59
2019-01-13T17:35:56.013Z,99255.33
2019-01-13T17:38:24.323Z,99267.19
2019-01-13T17:40:52.609Z,99293.29
2019-01-13T17:43:20.911Z,99297.83
2019-01-13T17:45:49.520Z,99308.55
2019-01-13T17:48:17.813Z,99306.22
2019-01-13T17:50:46.112Z,99296.24
2019-01-13T17:53:14.410Z,99287.73
2019-01-13T17:55:42.721Z,99286.45
2019-01-13T17:58:11.006Z,99279.58
2019-01-13T18:01:19.359Z,99284.35
2019-01-13T18:04:07.023Z,99280.76
2019-01-13T18:06:35.341Z,99292.91
2019-01-13T18:12:11.705Z,99297.36
2019-01-13T18:14:59.112Z,99308.05
2019-01-13T18:17:27.408Z,99303.43
2019-01-13T18:19:55.707Z,99298.52
2019-01-13T18:22:43.352Z,99318.81
2019-01-13T18:25:51.678Z,99317.51
2019-01-13T18:28:39.434Z,99318.16
2019-01-13T18:33:55.058Z,99320.95
2019-01-13T18:36:42.678Z,99333.38
2019-01-13T18:39:30.383Z,99328.96
2019-01-13T18:41:58.676Z,99332.08
2019-01-13T18:47:20.591Z,99332.39
2019-01-13T18:52:22.536Z,99334.70
2019-01-13T18:54:50.847Z,99335.20
2019-01-13T18:57:19.141Z,99334.70
2019-01-13T18:59:47.434Z,99343.09
2019-01-13T19:02:15.749Z,99345.55
2019-01-13T19:04:44.049Z,99339.47
2019-01-13T19:07:12.740Z,99339.62
2019-01-13T19:09:41.028Z,99351.58
2019-01-13T19:12:09.341Z,99347.31
2019-01-13T19:17:25.272Z,99354.04
2019-01-13T19:19:53.557Z,99352.23
2019-01-13T19:22:21.854Z,99360.30
2019-01-13T19:27:23.723Z,99360.95
2019-01-13T19:29:52.025Z,99356.05
2019-01-13T19:32:20.656Z,99352.61
2019-01-13T19:34:48.956Z,99358.18
2019-01-13T19:37:17.274Z,99351.95
2019-01-13T19:39:45.589Z,99355.58
2019-01-13T19:42:33.257Z,99358.20
2019-01-13T19:45:01.913Z,99361.32
2019-01-13T19:47:30.207Z,99357.54
2019-01-13T19:49:58.514Z,99356.72
2019-01-13T19:52:26.796Z,99356.41
2019-01-13T19:54:55.091Z,99363.11
2019-01-13T19:57:23.424Z,99380.14
2019-01-13T19:59:51.720Z,99377.87
2019-01-13T20:02:20.025Z,99379.48
2019-01-13T20:04:48.326Z,99377.20
2019-01-13T20:07:36.021Z,99376.86
2019-01-13T20:10:44.357Z,99379.48
2019-01-13T20:16:45.522Z,99383.41
2019-01-13T20:19:13.843Z,99380.96
2019-01-13T20:21:42.143Z,99382.89
2019-01-13T20:24:10.445Z,99392.25
2019-01-13T20:26:38.757Z,99396.84
2019-01-13T20:29:07.064Z,99393.73
2019-01-13T20:31:35.396Z,99400.92
2019-01-13T20:34:03.685Z,99392.42
2019-01-13T20:39:45.727Z,99401.58
2019-01-13T20:42:33.406Z,99405.87
2019-01-13T20:45:20.835Z,99401.77
2019-01-13T20:47:49.152Z,99408.95
2019-01-13T20:50:36.891Z,99404.70
2019-01-13T20:53:45.241Z,99409.29
2019-01-13T20:56:33.257Z,99405.66
2019-01-13T21:01:55.306Z,99421.56
2019-01-13T21:04:43.075Z,99413.72
2019-01-13T21:10:44.903Z,99424.53
2019-01-13T21:13:13.718Z,99434.03
2019-01-13T21:15:42.014Z,99431.75
2019-01-13T21:18:29.448Z,99416.17
2019-01-13T21:20:57.746Z,99430.60
2019-01-13T21:23:26.064Z,99431.23
2019-01-13T21:25:54.343Z,99432.89
2019-01-13T21:31:11.953Z,99436.83
2019-01-13T21:33:40.245Z,99434.03
2019-01-13T21:36:08.541Z,99442.88
2019-01-13T21:41:24.169Z,99454.86
2019-01-13T21:44:12.075Z,99459.75
2019-01-13T21:46:59.510Z,99462.55
2019-01-13T21:49:27.806Z,99454.52
2019-01-13T21:54:29.927Z,99465.98
2019-01-13T21:56:58.244Z,99458.94
2019-01-13T21:59:26.539Z,99464.34
2019-01-13T22:01:55.154Z,99457.78
2019-01-13T22:04:23.440Z,99465.50
2019-01-13T22:06:51.729Z,99468.45
2019-01-13T22:09:39.650Z,99474.19
2019-01-13T22:12:07.932Z,99474.33
2019-01-13T22:14:36.525Z,99478.43
2019-01-13T22:17:44.848Z,99479.10
2019-01-13T22:20:32.512Z,99489.75
2019-01-13T22:23:19.957Z,99494.16
2019-01-13T22:25:48.265Z,99501.20
2019-01-13T22:31:03.891Z,99501.55
2019-01-13T22:33:51.809Z,99500.06
2019-01-13T22:36:20.125Z,99506.30
2019-01-13T22:38:48.426Z,99505.14
2019-01-13T22:41:16.727Z,99511.20
2019-01-13T22:43:45.012Z,99512.02
2019-01-13T22:46:13.318Z,99524.12
2019-01-13T22:48:41.869Z,99520.20
2019-01-13T22:51:10.178Z,99524.62
2019-01-13T22:53:38.471Z,99531.00
2019-01-13T22:56:06.780Z,99528.55
2019-01-13T22:58:35.064Z,99529.69
2019-01-13T23:01:43.671Z,99531.31
2019-01-13T23:07:00.919Z,99541.80
2019-01-13T23:09:48.964Z,99544.73
2019-01-13T23:12:24.241Z,99540.12
2019-01-13T23:14:52.537Z,99554.22
2019-01-13T23:17:40.224Z,99553.91
2019-01-13T23:20:48.542Z,99545.38
2019-01-13T23:23:35.966Z,99561.59
2019-01-13T23:26:44.310Z,99557.66
2019-01-13T23:29:12.608Z,99564.70
2019-01-13T23:31:40.891Z,99568.95
2019-01-13T23:34:09.175Z,99566.19
2019-01-13T23:36:37.782Z,99568.45
2019-01-13T23:39:46.115Z,99573.38
2019-01-13T23:42:33.787Z,99569.45
2019-01-13T23:45:02.089Z,99576.98
2019-01-13T23:47:30.393Z,99572.56
2019-01-13T23:49:58.672Z,99577.81
2019-01-13T23:52:26.989Z,99570.45
2019-01-13T23:54:55.619Z,99580.42
2019-01-13T23:57:23.923Z,99581.41
2019-01-13T23:59:52.200Z,99592.84
